QFA930 PAOM-PANC
Flight info
| Callsign | QFA930 |
|---|---|
| Flight time | 1h 18m |
| Altitude | 37000 |
| Route | OME J111 WINOR KROTO5 |
| Aircraft | B738/M-L/LB1 |
Departure
| Time | 2026-04-16 09:50 |
|---|---|
| Airport | Nome Airport (PAOM) |
Arrival
| Time | 2026-04-16 11:09 |
|---|---|
| Airport | Ted Stevens Anchorage International Airport (PANC) |
| Time | Latitude | Longitude | Altitude | Speed | Heading |
|---|---|---|---|---|---|
| 2026-04-16 09:05 | 64.50786 | -165.44034 | 47 ft | 0 kts | 177° |
| 2026-04-16 09:39 | 64.50808 | -165.44037 | 47 ft | 0 kts | 203° |
| 2026-04-16 09:39 | 64.50811 | -165.44010 | 47 ft | 7 kts | 254° |
| 2026-04-16 09:39 | 64.50818 | -165.43953 | 47 ft | 0 kts | 254° |
| 2026-04-16 09:45 | 64.50825 | -165.44029 | 47 ft | 12 kts | 314° |
| 2026-04-16 09:45 | 64.50940 | -165.43999 | 47 ft | 22 kts | 31° |
| 2026-04-16 09:45 | 64.50928 | -165.43637 | 47 ft | 28 kts | 114° |
| 2026-04-16 09:45 | 64.50859 | -165.43285 | 47 ft | 12 kts | 90° |
| 2026-04-16 09:46 | 64.50877 | -165.43272 | 47 ft | 2 kts | 296° |
| 2026-04-16 09:46 | 64.50877 | -165.43274 | 47 ft | 0 kts | 294° |
| 2026-04-16 09:47 | 64.50877 | -165.43275 | 47 ft | 0 kts | 294° |
| 2026-04-16 09:49 | 64.50877 | -165.43276 | 47 ft | 0 kts | 294° |
| 2026-04-16 09:49 | 64.50880 | -165.43287 | 47 ft | 3 kts | 294° |
| 2026-04-16 09:50 | 64.50896 | -165.43377 | 47 ft | 16 kts | 291° |
| 2026-04-16 09:50 | 64.51046 | -165.44312 | 47 ft | 104 kts | 290° |
| 2026-04-16 09:50 | 64.51363 | -165.46394 | 138 ft | 163 kts | 288° |
| 2026-04-16 09:50 | 64.51574 | -165.48902 | 1124 ft | 158 kts | 268° |
| 2026-04-16 09:51 | 64.51091 | -165.51251 | 1907 ft | 175 kts | 221° |
| 2026-04-16 09:51 | 64.49887 | -165.52160 | 2430 ft | 200 kts | 174° |
| 2026-04-16 09:51 | 64.48600 | -165.50669 | 2884 ft | 220 kts | 127° |
| 2026-04-16 09:51 | 64.48028 | -165.47478 | 3859 ft | 211 kts | 92° |
| 2026-04-16 09:52 | 64.48091 | -165.44179 | 4897 ft | 214 kts | 85° |
| 2026-04-16 09:52 | 64.48242 | -165.40628 | 5559 ft | 230 kts | 84° |
| 2026-04-16 09:52 | 64.48426 | -165.36802 | 6211 ft | 248 kts | 83° |
| 2026-04-16 09:52 | 64.48519 | -165.32727 | 6985 ft | 257 kts | 89° |
| 2026-04-16 09:53 | 64.48549 | -165.28542 | 7860 ft | 262 kts | 90° |
| 2026-04-16 09:53 | 64.48421 | -165.24291 | 8727 ft | 267 kts | 102° |
| 2026-04-16 09:53 | 64.47966 | -165.20146 | 9598 ft | 271 kts | 105° |
| 2026-04-16 09:53 | 64.47478 | -165.15860 | 10309 ft | 283 kts | 105° |
| 2026-04-16 09:54 | 64.46960 | -165.11319 | 10798 ft | 300 kts | 105° |
| 2026-04-16 09:54 | 64.46415 | -165.06516 | 11341 ft | 314 kts | 105° |
| 2026-04-16 09:54 | 64.45855 | -165.01559 | 12083 ft | 321 kts | 106° |
| 2026-04-16 09:54 | 64.45284 | -164.96506 | 12883 ft | 327 kts | 106° |
| 2026-04-16 09:55 | 64.44702 | -164.91379 | 13695 ft | 331 kts | 106° |
| 2026-04-16 09:55 | 64.44109 | -164.86195 | 14517 ft | 336 kts | 106° |
| 2026-04-16 09:55 | 64.43502 | -164.80934 | 15334 ft | 340 kts | 106° |
| 2026-04-16 09:55 | 64.42885 | -164.75606 | 16140 ft | 345 kts | 106° |
| 2026-04-16 09:56 | 64.42253 | -164.70210 | 16937 ft | 350 kts | 107° |
| 2026-04-16 09:56 | 64.41606 | -164.64750 | 17741 ft | 354 kts | 107° |
| 2026-04-16 09:56 | 64.40955 | -164.59218 | 18543 ft | 359 kts | 107° |
| 2026-04-16 09:56 | 64.40300 | -164.53615 | 19344 ft | 363 kts | 106° |
| 2026-04-16 09:57 | 64.39639 | -164.47948 | 20124 ft | 367 kts | 106° |
| 2026-04-16 09:57 | 64.38967 | -164.42221 | 20897 ft | 371 kts | 106° |
| 2026-04-16 09:57 | 64.38282 | -164.36437 | 21637 ft | 375 kts | 106° |
| 2026-04-16 09:57 | 64.37587 | -164.30597 | 22363 ft | 379 kts | 107° |
| 2026-04-16 09:58 | 64.36882 | -164.24700 | 23072 ft | 383 kts | 107° |
| 2026-04-16 09:58 | 64.36166 | -164.18749 | 23764 ft | 386 kts | 107° |
| 2026-04-16 09:58 | 64.35441 | -164.12741 | 24428 ft | 390 kts | 107° |
| 2026-04-16 09:58 | 64.34710 | -164.06668 | 25040 ft | 395 kts | 107° |
| 2026-04-16 09:59 | 64.33968 | -164.00522 | 25623 ft | 400 kts | 107° |
| 2026-04-16 09:59 | 64.33214 | -163.94303 | 26172 ft | 405 kts | 107° |
| 2026-04-16 09:59 | 64.32447 | -163.88024 | 26704 ft | 410 kts | 107° |
| 2026-04-16 09:59 | 64.31665 | -163.81664 | 27227 ft | 415 kts | 108° |
| 2026-04-16 10:00 | 64.30872 | -163.75234 | 27734 ft | 419 kts | 108° |
| 2026-04-16 10:00 | 64.30070 | -163.68742 | 28242 ft | 423 kts | 108° |
| 2026-04-16 10:00 | 64.29257 | -163.62194 | 28720 ft | 427 kts | 108° |
| 2026-04-16 10:01 | 64.27598 | -163.48916 | 29607 ft | 436 kts | 108° |
| 2026-04-16 10:01 | 64.26752 | -163.42188 | 30020 ft | 440 kts | 109° |
| 2026-04-16 10:01 | 64.25895 | -163.35406 | 30424 ft | 443 kts | 109° |
| 2026-04-16 10:01 | 64.25027 | -163.28563 | 30715 ft | 450 kts | 108° |
| 2026-04-16 10:02 | 64.24137 | -163.21590 | 30901 ft | 457 kts | 108° |
| 2026-04-16 10:02 | 64.23239 | -163.14565 | 31281 ft | 459 kts | 108° |
| 2026-04-16 10:02 | 64.22333 | -163.07510 | 31657 ft | 461 kts | 109° |
| 2026-04-16 10:02 | 64.21421 | -163.00436 | 32032 ft | 463 kts | 109° |
| 2026-04-16 10:03 | 64.20502 | -162.93348 | 32407 ft | 464 kts | 109° |
| 2026-04-16 10:03 | 64.19577 | -162.86253 | 32780 ft | 464 kts | 109° |
| 2026-04-16 10:03 | 64.18648 | -162.79152 | 33156 ft | 465 kts | 109° |
| 2026-04-16 10:03 | 64.17717 | -162.72068 | 33528 ft | 465 kts | 109° |
| 2026-04-16 10:04 | 64.16781 | -162.64972 | 33903 ft | 465 kts | 109° |
| 2026-04-16 10:04 | 64.15841 | -162.57883 | 34277 ft | 465 kts | 109° |
| 2026-04-16 10:04 | 64.14899 | -162.50806 | 34651 ft | 464 kts | 109° |
| 2026-04-16 10:04 | 64.13955 | -162.43743 | 35025 ft | 463 kts | 109° |
| 2026-04-16 10:05 | 64.13009 | -162.36697 | 35399 ft | 462 kts | 109° |
| 2026-04-16 10:05 | 64.12061 | -162.29671 | 35773 ft | 461 kts | 109° |
| 2026-04-16 10:05 | 64.11113 | -162.22668 | 36149 ft | 460 kts | 109° |
| 2026-04-16 10:05 | 64.10164 | -162.15688 | 36524 ft | 459 kts | 109° |
| 2026-04-16 10:06 | 64.09214 | -162.08734 | 36870 ft | 458 kts | 109° |
| 2026-04-16 10:06 | 64.08565 | -162.04005 | 36883 ft | 463 kts | 109° |
| 2026-04-16 10:06 | 64.06608 | -161.89813 | 36894 ft | 472 kts | 109° |
| 2026-04-16 10:07 | 64.04627 | -161.75541 | 36894 ft | 470 kts | 110° |
| 2026-04-16 10:07 | 64.02643 | -161.61388 | 36893 ft | 467 kts | 110° |
| 2026-04-16 10:08 | 64.00648 | -161.47289 | 36893 ft | 467 kts | 110° |
| 2026-04-16 10:08 | 63.98644 | -161.33214 | 36892 ft | 467 kts | 110° |
| 2026-04-16 10:09 | 63.96626 | -161.19171 | 36891 ft | 466 kts | 110° |
| 2026-04-16 10:09 | 63.94594 | -161.05147 | 36889 ft | 467 kts | 110° |
| 2026-04-16 10:10 | 63.92547 | -160.91130 | 36887 ft | 467 kts | 111° |
| 2026-04-16 10:10 | 63.90483 | -160.77124 | 36885 ft | 468 kts | 111° |
| 2026-04-16 10:11 | 63.88387 | -160.63169 | 36885 ft | 467 kts | 112° |
| 2026-04-16 10:11 | 63.86103 | -160.49356 | 36885 ft | 467 kts | 113° |
| 2026-04-16 10:12 | 63.83802 | -160.35609 | 36885 ft | 467 kts | 112° |
| 2026-04-16 10:12 | 63.81546 | -160.21807 | 36884 ft | 467 kts | 113° |
| 2026-04-16 10:13 | 63.79246 | -160.08049 | 36886 ft | 467 kts | 113° |
| 2026-04-16 10:13 | 63.76928 | -159.94320 | 36886 ft | 467 kts | 113° |
| 2026-04-16 10:14 | 63.74612 | -159.80605 | 36887 ft | 467 kts | 113° |
| 2026-04-16 10:14 | 63.72292 | -159.67011 | 36887 ft | 467 kts | 114° |
| 2026-04-16 10:15 | 63.69944 | -159.53358 | 36887 ft | 468 kts | 114° |
| 2026-04-16 10:15 | 63.67582 | -159.39703 | 36889 ft | 468 kts | 114° |
| 2026-04-16 10:16 | 63.65204 | -159.26062 | 36890 ft | 468 kts | 114° |
| 2026-04-16 10:16 | 63.62814 | -159.12452 | 36890 ft | 468 kts | 114° |
| 2026-04-16 10:17 | 63.60408 | -158.98839 | 36891 ft | 469 kts | 114° |
| 2026-04-16 10:17 | 63.57987 | -158.85239 | 36891 ft | 469 kts | 115° |
| 2026-04-16 10:18 | 63.55551 | -158.71654 | 36892 ft | 469 kts | 115° |
| 2026-04-16 10:18 | 63.53119 | -158.58183 | 36902 ft | 469 kts | 115° |
| 2026-04-16 10:19 | 63.50657 | -158.44642 | 36907 ft | 469 kts | 115° |
| 2026-04-16 10:19 | 63.48184 | -158.31128 | 36908 ft | 470 kts | 115° |
| 2026-04-16 10:20 | 63.45695 | -158.17625 | 36909 ft | 469 kts | 115° |
| 2026-04-16 10:20 | 63.43178 | -158.04060 | 36910 ft | 469 kts | 115° |
| 2026-04-16 10:21 | 63.40664 | -157.90605 | 36910 ft | 470 kts | 115° |
| 2026-04-16 10:21 | 63.38150 | -157.77243 | 36911 ft | 470 kts | 116° |
| 2026-04-16 10:22 | 63.35608 | -157.63820 | 36911 ft | 470 kts | 116° |
| 2026-04-16 10:22 | 63.33035 | -157.50321 | 36912 ft | 470 kts | 116° |
| 2026-04-16 10:23 | 63.30481 | -157.37017 | 36913 ft | 471 kts | 116° |
| 2026-04-16 10:23 | 63.27883 | -157.23568 | 36913 ft | 471 kts | 116° |
| 2026-04-16 10:24 | 63.25301 | -157.10295 | 36917 ft | 471 kts | 116° |
| 2026-04-16 10:24 | 63.22671 | -156.96859 | 36920 ft | 471 kts | 116° |
| 2026-04-16 10:25 | 63.20046 | -156.83542 | 36922 ft | 471 kts | 117° |
| 2026-04-16 10:25 | 63.17404 | -156.70226 | 36923 ft | 472 kts | 117° |
| 2026-04-16 10:26 | 63.14750 | -156.56931 | 36923 ft | 472 kts | 117° |
| 2026-04-16 10:26 | 63.12083 | -156.43663 | 36931 ft | 472 kts | 117° |
| 2026-04-16 10:27 | 63.09404 | -156.30422 | 36924 ft | 472 kts | 117° |
| 2026-04-16 10:27 | 63.06714 | -156.17207 | 36923 ft | 472 kts | 117° |
| 2026-04-16 10:28 | 63.04011 | -156.04016 | 36917 ft | 472 kts | 117° |
| 2026-04-16 10:28 | 63.01297 | -155.90856 | 36914 ft | 473 kts | 118° |
| 2026-04-16 10:29 | 62.98556 | -155.77651 | 36914 ft | 475 kts | 118° |
| 2026-04-16 10:29 | 62.95800 | -155.64466 | 36914 ft | 474 kts | 118° |
| 2026-04-16 10:30 | 62.92555 | -155.51976 | 36911 ft | 470 kts | 125° |
| 2026-04-16 10:30 | 62.89137 | -155.39744 | 36913 ft | 470 kts | 126° |
| 2026-04-16 10:31 | 62.85694 | -155.27553 | 36917 ft | 471 kts | 126° |
| 2026-04-16 10:31 | 62.82247 | -155.15350 | 36919 ft | 471 kts | 126° |
| 2026-04-16 10:32 | 62.78789 | -155.03186 | 36921 ft | 471 kts | 126° |
| 2026-04-16 10:32 | 62.75321 | -154.91069 | 36923 ft | 471 kts | 126° |
| 2026-04-16 10:33 | 62.71837 | -154.78947 | 36924 ft | 472 kts | 126° |
| 2026-04-16 10:33 | 62.68339 | -154.66843 | 36926 ft | 472 kts | 126° |
| 2026-04-16 10:34 | 62.64828 | -154.54765 | 36926 ft | 472 kts | 127° |
| 2026-04-16 10:34 | 62.61308 | -154.42713 | 36925 ft | 472 kts | 127° |
| 2026-04-16 10:35 | 62.57776 | -154.30689 | 36928 ft | 472 kts | 127° |
| 2026-04-16 10:35 | 62.54232 | -154.18686 | 36930 ft | 473 kts | 127° |
| 2026-04-16 10:36 | 62.50675 | -154.06711 | 36931 ft | 472 kts | 127° |
| 2026-04-16 10:36 | 62.47116 | -153.94777 | 36931 ft | 473 kts | 127° |
| 2026-04-16 10:37 | 62.43544 | -153.82861 | 36931 ft | 473 kts | 128° |
| 2026-04-16 10:37 | 62.39957 | -153.70971 | 36932 ft | 473 kts | 128° |
| 2026-04-16 10:38 | 62.36361 | -153.59108 | 36932 ft | 473 kts | 128° |
| 2026-04-16 10:38 | 62.32751 | -153.47258 | 36932 ft | 473 kts | 128° |
| 2026-04-16 10:39 | 62.29129 | -153.35432 | 36774 ft | 474 kts | 128° |
| 2026-04-16 10:39 | 62.27318 | -153.29540 | 36172 ft | 471 kts | 128° |
| 2026-04-16 10:39 | 62.25518 | -153.23693 | 35625 ft | 468 kts | 129° |
| 2026-04-16 10:40 | 62.23728 | -153.17897 | 35090 ft | 464 kts | 129° |
| 2026-04-16 10:40 | 62.21947 | -153.12152 | 34562 ft | 461 kts | 129° |
| 2026-04-16 10:40 | 62.20176 | -153.06452 | 34038 ft | 458 kts | 130° |
| 2026-04-16 10:40 | 62.18412 | -153.00796 | 33517 ft | 455 kts | 130° |
| 2026-04-16 10:41 | 62.16657 | -152.95179 | 33000 ft | 453 kts | 131° |
| 2026-04-16 10:41 | 62.14978 | -152.89481 | 32491 ft | 455 kts | 124° |
| 2026-04-16 10:41 | 62.13676 | -152.83176 | 31969 ft | 458 kts | 118° |
| 2026-04-16 10:41 | 62.12495 | -152.76857 | 31435 ft | 457 kts | 117° |
| 2026-04-16 10:42 | 62.11333 | -152.70562 | 30851 ft | 457 kts | 117° |
| 2026-04-16 10:42 | 62.10165 | -152.64220 | 30142 ft | 460 kts | 118° |
| 2026-04-16 10:42 | 62.08990 | -152.57872 | 29568 ft | 459 kts | 118° |
| 2026-04-16 10:42 | 62.07811 | -152.51554 | 29036 ft | 457 kts | 118° |
| 2026-04-16 10:43 | 62.06634 | -152.45289 | 28517 ft | 454 kts | 118° |
| 2026-04-16 10:43 | 62.05461 | -152.39066 | 28008 ft | 451 kts | 118° |
| 2026-04-16 10:43 | 62.04295 | -152.32887 | 27502 ft | 448 kts | 118° |
| 2026-04-16 10:43 | 62.03136 | -152.26755 | 26999 ft | 445 kts | 118° |
| 2026-04-16 10:44 | 62.01983 | -152.20672 | 26517 ft | 441 kts | 118° |
| 2026-04-16 10:44 | 62.00837 | -152.14650 | 26039 ft | 437 kts | 118° |
| 2026-04-16 10:44 | 62.00081 | -152.10689 | 25719 ft | 434 kts | 118° |
| 2026-04-16 10:44 | 61.98565 | -152.02775 | 25071 ft | 430 kts | 118° |
| 2026-04-16 10:45 | 61.97820 | -151.98898 | 24753 ft | 427 kts | 118° |
| 2026-04-16 10:45 | 61.96322 | -151.91120 | 24123 ft | 422 kts | 118° |
| 2026-04-16 10:45 | 61.95590 | -151.87324 | 23879 ft | 418 kts | 118° |
| 2026-04-16 10:45 | 61.94480 | -151.81580 | 23464 ft | 412 kts | 118° |
| 2026-04-16 10:46 | 61.93407 | -151.76054 | 23023 ft | 408 kts | 118° |
| 2026-04-16 10:46 | 61.92326 | -151.70511 | 22587 ft | 404 kts | 118° |
| 2026-04-16 10:46 | 61.91237 | -151.64942 | 22013 ft | 404 kts | 118° |
| 2026-04-16 10:46 | 61.90153 | -151.59419 | 21319 ft | 407 kts | 118° |
| 2026-04-16 10:47 | 61.89059 | -151.53857 | 20616 ft | 410 kts | 117° |
| 2026-04-16 10:47 | 61.87959 | -151.48263 | 19914 ft | 412 kts | 117° |
| 2026-04-16 10:47 | 61.86858 | -151.42672 | 19346 ft | 410 kts | 117° |
| 2026-04-16 10:47 | 61.85766 | -151.37134 | 18851 ft | 405 kts | 117° |
| 2026-04-16 10:48 | 61.84683 | -151.31671 | 18383 ft | 400 kts | 117° |
| 2026-04-16 10:48 | 61.83611 | -151.26289 | 17928 ft | 394 kts | 117° |
| 2026-04-16 10:48 | 61.82552 | -151.20986 | 17481 ft | 388 kts | 117° |
| 2026-04-16 10:48 | 61.81507 | -151.15766 | 17036 ft | 382 kts | 117° |
| 2026-04-16 10:49 | 61.80475 | -151.10628 | 16600 ft | 377 kts | 117° |
| 2026-04-16 10:49 | 61.79457 | -151.05576 | 16162 ft | 371 kts | 117° |
| 2026-04-16 10:49 | 61.78454 | -151.00601 | 15661 ft | 367 kts | 117° |
| 2026-04-16 10:49 | 61.77593 | -150.95545 | 15156 ft | 366 kts | 107° |
| 2026-04-16 10:50 | 61.76977 | -150.90353 | 14656 ft | 362 kts | 107° |
| 2026-04-16 10:50 | 61.76379 | -150.85214 | 14153 ft | 358 kts | 107° |
| 2026-04-16 10:50 | 61.75794 | -150.80136 | 13650 ft | 354 kts | 107° |
| 2026-04-16 10:50 | 61.75213 | -150.75126 | 13152 ft | 349 kts | 107° |
| 2026-04-16 10:51 | 61.74635 | -150.70189 | 12647 ft | 344 kts | 107° |
| 2026-04-16 10:51 | 61.74060 | -150.65325 | 12142 ft | 339 kts | 107° |
| 2026-04-16 10:51 | 61.73492 | -150.60535 | 11642 ft | 334 kts | 107° |
| 2026-04-16 10:51 | 61.72932 | -150.55819 | 11143 ft | 329 kts | 107° |
| 2026-04-16 10:52 | 61.72379 | -150.51180 | 10641 ft | 323 kts | 107° |
| 2026-04-16 10:52 | 61.71833 | -150.46618 | 10147 ft | 318 kts | 107° |
| 2026-04-16 10:52 | 61.71295 | -150.42129 | 9646 ft | 314 kts | 107° |
| 2026-04-16 10:52 | 61.70756 | -150.37687 | 9068 ft | 311 kts | 109° |
| 2026-04-16 10:53 | 61.69801 | -150.33716 | 8500 ft | 301 kts | 130° |
| 2026-04-16 10:53 | 61.68264 | -150.30878 | 7937 ft | 292 kts | 152° |
| 2026-04-16 10:53 | 61.66372 | -150.29514 | 7373 ft | 287 kts | 173° |
| 2026-04-16 10:53 | 61.64395 | -150.29203 | 6820 ft | 284 kts | 177° |
| 2026-04-16 10:54 | 61.62430 | -150.28988 | 6270 ft | 282 kts | 178° |
| 2026-04-16 10:54 | 61.60477 | -150.28796 | 5727 ft | 280 kts | 177° |
| 2026-04-16 10:54 | 61.58535 | -150.28588 | 5181 ft | 279 kts | 177° |
| 2026-04-16 10:54 | 61.56576 | -150.28362 | 4622 ft | 278 kts | 177° |
| 2026-04-16 10:55 | 61.54696 | -150.28137 | 4320 ft | 269 kts | 176° |
| 2026-04-16 10:55 | 61.52859 | -150.27919 | 4211 ft | 254 kts | 176° |
| 2026-04-16 10:55 | 61.51141 | -150.27719 | 4165 ft | 248 kts | 176° |
| 2026-04-16 10:55 | 61.49420 | -150.27521 | 4114 ft | 248 kts | 176° |
| 2026-04-16 10:56 | 61.47683 | -150.27321 | 4046 ft | 252 kts | 176° |
| 2026-04-16 10:56 | 61.45902 | -150.27115 | 4027 ft | 253 kts | 176° |
| 2026-04-16 10:56 | 61.44172 | -150.26916 | 4020 ft | 252 kts | 176° |
| 2026-04-16 10:56 | 61.42403 | -150.26712 | 4016 ft | 250 kts | 176° |
| 2026-04-16 10:57 | 61.40673 | -150.26513 | 4014 ft | 247 kts | 176° |
| 2026-04-16 10:57 | 61.38989 | -150.26319 | 4015 ft | 240 kts | 176° |
| 2026-04-16 10:57 | 61.37336 | -150.26129 | 4015 ft | 236 kts | 176° |
| 2026-04-16 10:57 | 61.35706 | -150.25943 | 4015 ft | 233 kts | 176° |
| 2026-04-16 10:58 | 61.34092 | -150.25757 | 4015 ft | 232 kts | 176° |
| 2026-04-16 10:58 | 61.32474 | -150.25572 | 3900 ft | 235 kts | 176° |
| 2026-04-16 10:58 | 61.30854 | -150.25496 | 3681 ft | 230 kts | 186° |
| 2026-04-16 10:58 | 61.29306 | -150.26383 | 3455 ft | 232 kts | 203° |
| 2026-04-16 10:59 | 61.27842 | -150.27717 | 3237 ft | 231 kts | 203° |
| 2026-04-16 10:59 | 61.26402 | -150.29044 | 3038 ft | 226 kts | 203° |
| 2026-04-16 10:59 | 61.25009 | -150.30504 | 3006 ft | 221 kts | 216° |
| 2026-04-16 10:59 | 61.24006 | -150.32821 | 2995 ft | 217 kts | 239° |
| 2026-04-16 11:00 | 61.23562 | -150.35789 | 2987 ft | 217 kts | 265° |
| 2026-04-16 11:00 | 61.23536 | -150.38906 | 2998 ft | 215 kts | 269° |
| 2026-04-16 11:00 | 61.23528 | -150.42010 | 2996 ft | 215 kts | 269° |
| 2026-04-16 11:00 | 61.23522 | -150.45104 | 3001 ft | 214 kts | 269° |
| 2026-04-16 11:01 | 61.23514 | -150.48197 | 3004 ft | 214 kts | 269° |
| 2026-04-16 11:01 | 61.23504 | -150.51275 | 2993 ft | 209 kts | 269° |
| 2026-04-16 11:01 | 61.23493 | -150.54247 | 3012 ft | 204 kts | 269° |
| 2026-04-16 11:01 | 61.23134 | -150.56998 | 2820 ft | 197 kts | 233° |
| 2026-04-16 11:02 | 61.22078 | -150.58604 | 2599 ft | 190 kts | 196° |
| 2026-04-16 11:02 | 61.20787 | -150.59013 | 2369 ft | 186 kts | 180° |
| 2026-04-16 11:02 | 61.19526 | -150.58608 | 2131 ft | 183 kts | 162° |
| 2026-04-16 11:02 | 61.18395 | -150.57439 | 2055 ft | 182 kts | 144° |
| 2026-04-16 11:03 | 61.17480 | -150.55624 | 2036 ft | 183 kts | 128° |
| 2026-04-16 11:03 | 61.16871 | -150.53342 | 2014 ft | 184 kts | 110° |
| 2026-04-16 11:03 | 61.16637 | -150.48119 | 2002 ft | 183 kts | 89° |
| 2026-04-16 11:04 | 61.16651 | -150.45482 | 1994 ft | 183 kts | 90° |
| 2026-04-16 11:04 | 61.16663 | -150.42843 | 1997 ft | 184 kts | 90° |
| 2026-04-16 11:04 | 61.16675 | -150.40185 | 1863 ft | 180 kts | 90° |
| 2026-04-16 11:04 | 61.16685 | -150.37624 | 1669 ft | 178 kts | 89° |
| 2026-04-16 11:05 | 61.16696 | -150.34953 | 1682 ft | 181 kts | 89° |
| 2026-04-16 11:05 | 61.16706 | -150.32375 | 1690 ft | 175 kts | 89° |
| 2026-04-16 11:05 | 61.16714 | -150.29883 | 1698 ft | 171 kts | 89° |
| 2026-04-16 11:05 | 61.16722 | -150.27473 | 1697 ft | 168 kts | 89° |
| 2026-04-16 11:06 | 61.16730 | -150.25038 | 1702 ft | 166 kts | 89° |
| 2026-04-16 11:06 | 61.16737 | -150.22754 | 1707 ft | 155 kts | 89° |
| 2026-04-16 11:06 | 61.16743 | -150.20557 | 1706 ft | 150 kts | 89° |
| 2026-04-16 11:06 | 61.16749 | -150.18422 | 1700 ft | 146 kts | 89° |
| 2026-04-16 11:07 | 61.16755 | -150.16231 | 1396 ft | 160 kts | 89° |
| 2026-04-16 11:07 | 61.16761 | -150.13924 | 1218 ft | 158 kts | 89° |
| 2026-04-16 11:07 | 61.16754 | -150.11643 | 996 ft | 160 kts | 89° |
| 2026-04-16 11:07 | 61.16760 | -150.09271 | 699 ft | 165 kts | 88° |
| 2026-04-16 11:08 | 61.16766 | -150.07001 | 484 ft | 150 kts | 88° |
| 2026-04-16 11:08 | 61.16777 | -150.04886 | 286 ft | 145 kts | 88° |
| 2026-04-16 11:08 | 61.16783 | -150.02879 | 163 ft | 127 kts | 90° |
| 2026-04-16 11:08 | 61.16782 | -150.01381 | 162 ft | 90 kts | 89° |
| 2026-04-16 11:09 | 61.16784 | -150.00286 | 161 ft | 60 kts | 89° |
| 2026-04-16 11:09 | 61.16809 | -149.99669 | 161 ft | 32 kts | 63° |
| 2026-04-16 11:09 | 61.16890 | -149.99425 | 161 ft | 17 kts | 37° |
| 2026-04-16 11:09 | 61.16980 | -149.99296 | 161 ft | 15 kts | 33° |
| 2026-04-16 11:10 | 61.17066 | -149.99166 | 161 ft | 16 kts | 39° |
| 2026-04-16 11:10 | 61.17158 | -149.98994 | 161 ft | 20 kts | 47° |
| 2026-04-16 11:10 | 61.17268 | -149.98803 | 161 ft | 23 kts | 349° |
| 2026-04-16 11:10 | 61.17421 | -149.98916 | 161 ft | 19 kts | 339° |
| 2026-04-16 11:11 | 61.17522 | -149.98993 | 161 ft | 12 kts | 340° |
| 2026-04-16 11:11 | 61.17571 | -149.99031 | 161 ft | 1 kts | 338° |
| 2026-04-16 11:11 | 61.17572 | -149.99032 | 161 ft | 0 kts | 338° |
| 2026-04-16 11:12 | 61.17574 | -149.99033 | 161 ft | 0 kts | 338° |
| 2026-04-16 11:12 | 61.17574 | -149.99034 | 161 ft | 0 kts | 338° |
| 2026-04-16 11:13 | 61.17583 | -149.99041 | 161 ft | 4 kts | 340° |
| 2026-04-16 11:13 | 61.17625 | -149.99049 | 161 ft | 7 kts | 10° |
| 2026-04-16 11:13 | 61.17654 | -149.99036 | 161 ft | 1 kts | 11° |
| 2026-04-16 11:13 | 61.17674 | -149.99027 | 161 ft | 6 kts | 13° |
| 2026-04-16 11:14 | 61.17714 | -149.98999 | 161 ft | 5 kts | 23° |
| 2026-04-16 11:14 | 61.17737 | -149.98977 | 161 ft | 1 kts | 25° |
| 2026-04-16 11:14 | 61.17745 | -149.98970 | 161 ft | 0 kts | 25° |